Time;durP1;ratioP1;P1;durP2;ratioP2;P2;SDS_P1;SDS_P2;PMS_P1;PMS_P2;Temp;Humidity;BMP_temperature;BMP_pressure;BME280_temperature;BME280_humidity;BME280_pressure;Samples;Min_cycle;Max_cycle;Signal;HPM_P1;HPM_P2
2021/06/11 00:00:44;;;;;;;6.62;3.90;;;15.60;99.90;;;;;;4374692;32;20460;-68
2021/06/11 00:03:11;;;;;;;4.90;3.47;;;15.60;99.90;;;;;;4353048;32;20101;-67
2021/06/11 00:05:37;;;;;;;4.03;3.22;;;15.50;99.90;;;;;;4353994;32;20074;-67
2021/06/11 00:08:04;;;;;;;5.22;3.87;;;15.40;99.90;;;;;;4378996;32;20459;-65
2021/06/11 00:10:31;;;;;;;6.25;3.90;;;15.20;99.90;;;;;;4365060;32;20157;-65
2021/06/11 00:12:58;;;;;;;6.35;3.55;;;15.20;99.90;;;;;;4359518;32;20146;-66
2021/06/11 00:15:25;;;;;;;6.85;3.65;;;15.30;99.90;;;;;;4364985;32;20450;-69
2021/06/11 00:17:51;;;;;;;7.72;4.07;;;15.50;99.90;;;;;;4360300;32;20071;-66
2021/06/11 00:20:18;;;;;;;6.72;4.10;;;15.70;99.90;;;;;;4370112;32;20094;-67
2021/06/11 00:22:45;;;;;;;6.25;3.90;;;15.70;99.90;;;;;;4363587;32;20171;-65
2021/06/11 00:25:14;;;;;;;5.30;3.58;;;15.70;99.90;;;;;;4376519;32;20491;-68
2021/06/11 00:27:41;;;;;;;5.80;3.87;;;15.40;99.90;;;;;;4372171;32;20071;-67
2021/06/11 00:30:08;;;;;;;7.05;4.22;;;15.30;99.90;;;;;;4371034;32;20058;-67
2021/06/11 00:32:35;;;;;;;8.95;3.97;;;15.30;99.90;;;;;;4379958;32;20164;-67
2021/06/11 00:35:02;;;;;;;4.53;4.00;;;15.30;99.90;;;;;;4364058;32;20102;-65
2021/06/11 00:37:29;;;;;;;6.55;3.87;;;15.40;99.90;;;;;;4369720;32;20069;-66
2021/06/11 00:39:55;;;;;;;6.93;3.75;;;15.50;99.90;;;;;;4371824;32;20078;-66
2021/06/11 00:42:21;;;;;;;8.02;3.70;;;15.50;99.90;;;;;;4358291;32;20163;-67
2021/06/11 00:44:47;;;;;;;5.12;4.07;;;15.50;99.90;;;;;;4369561;32;20074;-66
2021/06/11 00:47:13;;;;;;;7.37;3.83;;;15.50;99.90;;;;;;4377386;32;20082;-65
2021/06/11 00:49:39;;;;;;;5.35;3.83;;;15.40;99.90;;;;;;4372225;32;20075;-65
2021/06/11 00:52:08;;;;;;;8.38;3.90;;;15.50;99.90;;;;;;4348540;32;20157;-65
2021/06/11 00:54:34;;;;;;;6.97;3.97;;;15.50;99.90;;;;;;4367262;32;20093;-67
2021/06/11 00:57:01;;;;;;;7.60;3.78;;;15.70;99.90;;;;;;4362412;32;20080;-66
2021/06/11 00:59:27;;;;;;;6.07;4.20;;;15.70;99.90;;;;;;4350141;32;20085;-65
2021/06/11 01:01:54;;;;;;;6.75;4.20;;;15.60;99.90;;;;;;4375120;32;20086;-66
2021/06/11 01:04:20;;;;;;;6.97;4.45;;;15.80;99.90;;;;;;4370416;32;20155;-67
2021/06/11 01:06:46;;;;;;;5.32;4.12;;;15.90;99.90;;;;;;4390460;32;20134;-65
2021/06/11 01:09:12;;;;;;;6.85;4.65;;;15.80;99.90;;;;;;4353894;32;20070;-66
2021/06/11 01:11:40;;;;;;;5.60;3.80;;;15.60;99.90;;;;;;4349216;32;20084;-66
2021/06/11 01:14:06;;;;;;;5.65;4.37;;;15.60;99.90;;;;;;4376314;32;20136;-67
2021/06/11 01:16:32;;;;;;;6.93;4.43;;;15.60;99.90;;;;;;4362450;32;20078;-67
2021/06/11 01:18:58;;;;;;;6.12;4.20;;;15.50;99.90;;;;;;4350181;32;20159;-67
2021/06/11 01:21:25;;;;;;;5.80;4.22;;;15.50;99.90;;;;;;4374867;32;20085;-66
2021/06/11 01:24:14;;;;;;;7.05;4.90;;;15.50;99.90;;;;;;4356998;32;20077;-66
2021/06/11 01:26:53;;;;;;;6.65;5.07;;;15.40;99.90;;;;;;4375070;32;20093;-67
2021/06/11 01:29:25;;;;;;;7.55;5.45;;;15.40;99.90;;;;;;4361438;32;20651;-65
2021/06/11 01:34:33;;;;;;;5.82;4.87;;;15.50;99.90;;;;;;3857279;37;20058;-67
2021/06/11 01:37:12;;;;;;;7.00;4.50;;;15.30;99.90;;;;;;4378882;32;20549;-67
2021/06/11 01:39:38;;;;;;;5.90;4.37;;;15.30;99.90;;;;;;4391671;32;20069;-67
2021/06/11 01:42:06;;;;;;;7.85;4.35;;;15.50;99.90;;;;;;4357740;32;20066;-68
2021/06/11 01:44:32;;;;;;;6.28;4.05;;;15.50;99.90;;;;;;4397868;32;20445;-67
2021/06/11 01:46:59;;;;;;;8.27;3.62;;;15.50;99.90;;;;;;4390202;32;20154;-66
2021/06/11 01:49:26;;;;;;;5.43;3.60;;;15.60;99.90;;;;;;4377067;32;20543;-67
2021/06/11 01:51:55;;;;;;;5.25;3.42;;;15.70;99.90;;;;;;4384311;32;20424;-67
2021/06/11 01:54:21;;;;;;;6.05;3.87;;;15.80;99.90;;;;;;4368878;32;20085;-67
2021/06/11 01:56:48;;;;;;;7.68;4.32;;;15.90;99.90;;;;;;4386612;32;20145;-66
2021/06/11 01:59:14;;;;;;;7.30;4.12;;;16.00;99.90;;;;;;4370313;32;20072;-67
2021/06/11 02:01:40;;;;;;;6.25;4.18;;;16.50;99.90;;;;;;4383423;32;20471;-67
2021/06/11 02:04:06;;;;;;;5.80;4.05;;;16.90;99.90;;;;;;4372456;32;20112;-67
2021/06/11 02:06:32;;;;;;;6.28;3.47;;;17.00;99.90;;;;;;4378043;32;20089;-68
2021/06/11 02:08:59;;;;;;;5.78;4.40;;;16.80;99.90;;;;;;4402081;32;20076;-68
2021/06/11 02:11:25;;;;;;;5.85;3.97;;;16.70;99.90;;;;;;4379167;32;20093;-67
2021/06/11 02:13:53;;;;;;;5.47;4.25;;;16.80;99.90;;;;;;4370955;32;20142;-67
2021/06/11 02:16:19;;;;;;;5.30;4.25;;;16.50;99.90;;;;;;4383981;32;20107;-68
2021/06/11 02:18:45;;;;;;;5.97;4.30;;;16.60;99.90;;;;;;4377073;32;20483;-67
2021/06/11 02:21:13;;;;;;;4.70;4.05;;;16.50;99.90;;;;;;4380387;32;20085;-67
2021/06/11 02:23:40;;;;;;;6.85;4.20;;;16.40;99.90;;;;;;4387832;32;20081;-67
2021/06/11 02:26:08;;;;;;;5.70;4.57;;;16.50;99.90;;;;;;4385544;32;20085;-67
2021/06/11 02:28:34;;;;;;;7.70;4.72;;;16.50;99.90;;;;;;4368835;32;20197;-65
2021/06/11 02:31:01;;;;;;;5.60;4.65;;;16.50;99.90;;;;;;4389818;32;20177;-66
2021/06/11 02:33:27;;;;;;;8.38;5.03;;;16.60;99.90;;;;;;4380842;32;20077;-66
2021/06/11 02:35:57;;;;;;;7.20;4.87;;;16.70;99.90;;;;;;4386092;32;20088;-67
2021/06/11 02:38:23;;;;;;;7.47;5.93;;;16.70;99.90;;;;;;4365201;32;20089;-67
2021/06/11 02:40:50;;;;;;;6.55;4.95;;;16.80;99.90;;;;;;4389674;32;20078;-67
2021/06/11 02:43:19;;;;;;;8.38;5.18;;;16.90;99.90;;;;;;4372263;32;20185;-66
2021/06/11 02:46:03;;;;;;;6.22;4.87;;;17.00;99.90;;;;;;4376963;32;20101;-67
2021/06/11 02:48:52;;;;;;;11.55;5.40;;;17.20;99.90;;;;;;4379104;32;20079;-66
2021/06/11 02:51:31;;;;;;;7.07;5.28;;;17.40;99.90;;;;;;4367998;32;20066;-68
2021/06/11 02:53:58;;;;;;;7.70;5.35;;;17.60;99.90;;;;;;4355209;32;20077;-66
2021/06/11 02:56:32;;;;;;;7.62;5.90;;;17.60;99.90;;;;;;4372333;32;20162;-68
2021/06/11 02:59:01;;;;;;;8.40;5.45;;;17.50;99.90;;;;;;4346262;32;20074;-65
2021/06/11 03:01:28;;;;;;;7.32;5.32;;;17.50;99.90;;;;;;4391068;32;20074;-67
2021/06/11 03:03:54;;;;;;;6.55;4.93;;;17.80;99.90;;;;;;4361051;32;20158;-67
2021/06/11 03:06:22;;;;;;;6.35;4.68;;;17.90;99.90;;;;;;4362924;32;20151;-66
2021/06/11 03:08:49;;;;;;;7.32;4.80;;;18.00;99.90;;;;;;4376321;32;20483;-69
2021/06/11 03:11:28;;;;;;;9.00;5.90;;;18.10;99.90;;;;;;4364321;32;20191;-68
2021/06/11 03:13:54;;;;;;;8.25;5.97;;;18.30;99.90;;;;;;4379623;32;20076;-67
2021/06/11 03:16:20;;;;;;;7.32;5.70;;;17.90;99.90;;;;;;4373576;32;20070;-66
2021/06/11 03:18:59;;;;;;;6.62;5.18;;;17.90;99.90;;;;;;4384771;32;20612;-68
2021/06/11 03:21:30;;;;;;;8.93;5.93;;;17.80;99.90;;;;;;4360214;32;20477;-66
2021/06/11 03:24:54;;;;;;;7.03;5.75;;;18.00;99.90;;;;;;4367446;32;20072;-69
2021/06/11 03:27:27;;;;;;;9.02;5.40;;;18.30;99.90;;;;;;4334119;32;20094;-67
2021/06/11 03:29:56;;;;;;;10.25;6.05;;;18.50;99.90;;;;;;4371251;32;20089;-67
2021/06/11 03:32:30;;;;;;;8.73;5.97;;;18.50;99.90;;;;;;4382854;32;20535;-68
2021/06/11 03:35:03;;;;;;;8.00;5.90;;;18.70;99.90;;;;;;4385497;32;20133;-69
2021/06/11 03:37:30;;;;;;;8.95;5.00;;;19.00;99.90;;;;;;4366095;32;20058;-67
2021/06/11 03:40:09;;;;;;;8.05;5.40;;;19.00;99.90;;;;;;4365814;32;20098;-67
2021/06/11 03:42:35;;;;;;;10.23;5.60;;;19.00;99.90;;;;;;4357817;32;20223;-68
2021/06/11 03:45:02;;;;;;;8.13;5.25;;;19.20;99.90;;;;;;4379040;32;20065;-67
2021/06/11 03:47:33;;;;;;;8.48;6.20;;;19.20;99.90;;;;;;4377390;32;20063;-68
2021/06/11 03:50:00;;;;;;;7.47;5.55;;;19.20;99.90;;;;;;4365122;32;20611;-68
2021/06/11 03:52:31;;;;;;;7.25;5.12;;;19.20;99.90;;;;;;4385411;32;20440;-67
2021/06/11 03:55:16;;;;;;;7.10;4.97;;;19.40;99.90;;;;;;3829592;37;20062;-67
2021/06/11 03:57:43;;;;;;;6.47;5.30;;;19.60;99.90;;;;;;4343564;32;20077;-67
2021/06/11 04:00:10;;;;;;;6.62;5.00;;;19.70;99.90;;;;;;4361052;32;20787;-67
2021/06/11 04:02:36;;;;;;;8.45;4.70;;;19.80;99.90;;;;;;4361228;32;20588;-67
2021/06/11 04:05:03;;;;;;;5.85;4.85;;;19.80;99.90;;;;;;4372800;32;20161;-68
2021/06/11 04:07:40;;;;;;;6.15;4.50;;;19.60;99.90;;;;;;4347663;32;20813;-67
2021/06/11 04:10:28;;;;;;;6.40;3.75;;;19.50;99.90;;;;;;4357261;32;20148;-66
2021/06/11 04:12:57;;;;;;;8.73;5.03;;;19.90;99.90;;;;;;4345174;32;20074;-69
2021/06/11 04:15:25;;;;;;;9.52;4.43;;;20.10;99.90;;;;;;4354264;32;20521;-67
2021/06/11 04:17:55;;;;;;;8.73;5.25;;;20.00;99.90;;;;;;4356924;32;20549;-67
2021/06/11 04:20:28;;;;;;;11.00;6.80;;;19.80;99.90;;;;;;4329661;32;20150;-68
2021/06/11 04:22:55;;;;;;;8.60;5.40;;;19.40;99.90;;;;;;4350461;32;20060;-67
2021/06/11 04:25:21;;;;;;;10.98;6.30;;;19.70;99.90;;;;;;4342031;32;20081;-68
2021/06/11 04:27:50;;;;;;;9.38;5.95;;;20.10;99.90;;;;;;4369472;32;20078;-67
2021/06/11 04:30:17;;;;;;;9.63;5.95;;;20.60;99.90;;;;;;4345775;32;20082;-67
2021/06/11 04:32:43;;;;;;;9.40;6.20;;;21.10;99.90;;;;;;4344122;32;20094;-68
2021/06/11 04:35:10;;;;;;;8.02;5.12;;;21.30;99.90;;;;;;4388139;32;20077;-65
2021/06/11 04:37:38;;;;;;;9.55;5.97;;;21.40;99.90;;;;;;4347691;32;20071;-67
2021/06/11 04:40:06;;;;;;;8.93;6.57;;;21.50;99.90;;;;;;4362679;32;20078;-67
2021/06/11 04:42:34;;;;;;;8.75;6.45;;;22.20;99.90;;;;;;4352313;32;20076;-68
2021/06/11 04:45:00;;;;;;;9.13;6.15;;;23.30;99.90;;;;;;4363237;32;20168;-68
2021/06/11 04:47:27;;;;;;;9.70;5.93;;;23.70;99.90;;;;;;4360014;32;20066;-68
2021/06/11 04:49:54;;;;;;;7.10;5.37;;;23.10;99.90;;;;;;4363606;32;20521;-67
2021/06/11 04:52:21;;;;;;;9.38;5.57;;;22.90;99.90;;;;;;4341871;32;20161;-67
2021/06/11 04:54:47;;;;;;;8.27;6.05;;;22.30;99.90;;;;;;4373845;32;20085;-68
2021/06/11 04:57:14;;;;;;;7.72;5.03;;;21.90;99.90;;;;;;4384512;32;20582;-68
2021/06/11 04:59:40;;;;;;;6.12;5.00;;;22.10;99.90;;;;;;4339978;32;20085;-68
2021/06/11 05:02:06;;;;;;;9.45;5.32;;;22.00;99.90;;;;;;4369074;32;20593;-68
2021/06/11 05:04:32;;;;;;;6.78;5.20;;;22.50;99.90;;;;;;4369725;32;20070;-67
2021/06/11 05:07:01;;;;;;;6.87;4.30;;;22.20;99.90;;;;;;4348773;32;20091;-69
2021/06/11 05:09:27;;;;;;;5.57;4.03;;;22.30;99.90;;;;;;4376786;32;20183;-67
2021/06/11 05:11:54;;;;;;;5.22;4.28;;;22.70;99.90;;;;;;4333348;32;20073;-67
2021/06/11 05:14:20;;;;;;;6.35;5.10;;;22.90;99.90;;;;;;4345603;32;20142;-68
2021/06/11 05:16:46;;;;;;;6.47;4.95;;;22.80;99.90;;;;;;4365072;32;20074;-67
2021/06/11 05:19:12;;;;;;;8.55;5.82;;;22.90;99.90;;;;;;4349206;32;20097;-66
2021/06/11 05:21:38;;;;;;;7.55;5.55;;;22.40;99.90;;;;;;4354403;32;20186;-69
2021/06/11 05:24:06;;;;;;;5.18;4.07;;;21.60;99.90;;;;;;4356548;32;20074;-68
2021/06/11 05:26:32;;;;;;;6.72;4.37;;;22.40;99.90;;;;;;4341970;33;20074;-68
2021/06/11 05:28:58;;;;;;;9.85;5.22;;;22.20;99.90;;;;;;4359835;32;20082;-68
2021/06/11 05:31:24;;;;;;;8.48;4.57;;;22.50;99.90;;;;;;4352914;32;20073;-68
2021/06/11 05:33:51;;;;;;;8.20;4.10;;;22.60;99.90;;;;;;4343350;33;20078;-66
2021/06/11 05:36:17;;;;;;;7.37;5.22;;;22.00;99.90;;;;;;4341417;32;20146;-68
2021/06/11 05:38:43;;;;;;;8.68;5.68;;;22.30;99.90;;;;;;4361151;32;20125;-68
2021/06/11 05:41:09;;;;;;;5.15;4.15;;;22.30;99.90;;;;;;4348349;32;20104;-71
2021/06/11 05:43:35;;;;;;;6.12;4.60;;;22.80;99.90;;;;;;4361823;32;20088;-69
2021/06/11 05:46:02;;;;;;;5.97;4.75;;;22.50;99.90;;;;;;4357808;32;20177;-71
2021/06/11 05:48:28;;;;;;;7.50;5.10;;;22.70;99.90;;;;;;4356422;32;20122;-69
2021/06/11 05:50:55;;;;;;;6.28;5.00;;;22.50;99.90;;;;;;4337554;32;20118;-67
2021/06/11 05:53:22;;;;;;;6.53;4.85;;;22.60;99.90;;;;;;4314621;32;20195;-71
2021/06/11 05:55:50;;;;;;;6.85;5.20;;;22.40;99.90;;;;;;4317361;32;20838;-71
2021/06/11 05:58:17;;;;;;;12.07;5.57;;;22.70;99.90;;;;;;4334818;32;20190;-73
2021/06/11 06:00:43;;;;;;;10.20;5.00;;;22.60;99.90;;;;;;4324486;32;20065;-72
2021/06/11 06:03:09;;;;;;;8.88;5.57;;;23.40;99.90;;;;;;4331973;32;20146;-72
2021/06/11 06:05:35;;;;;;;6.72;4.80;;;22.70;99.90;;;;;;4314455;32;20148;-71
2021/06/11 06:08:02;;;;;;;7.32;5.68;;;22.80;99.90;;;;;;4335030;32;20534;-70
2021/06/11 06:10:28;;;;;;;7.82;5.65;;;22.50;99.90;;;;;;4336424;32;20154;-69
2021/06/11 06:12:54;;;;;;;7.85;5.00;;;22.40;99.90;;;;;;4343941;32;20075;-70
2021/06/11 06:15:20;;;;;;;7.47;5.07;;;22.70;99.90;;;;;;4338074;32;20469;-69
2021/06/11 06:17:47;;;;;;;7.10;5.37;;;23.00;99.90;;;;;;4329262;33;20067;-69
2021/06/11 06:20:14;;;;;;;7.32;5.78;;;23.30;99.90;;;;;;4325103;32;20066;-70
2021/06/11 06:22:41;;;;;;;6.40;4.78;;;22.90;99.90;;;;;;4327194;32;20590;-69
2021/06/11 06:25:08;;;;;;;7.70;5.50;;;23.30;99.90;;;;;;4337072;32;20077;-70
2021/06/11 06:27:35;;;;;;;9.02;6.32;;;23.30;99.90;;;;;;4327434;32;20074;-71
2021/06/11 06:30:05;;;;;;;6.80;5.82;;;22.70;99.90;;;;;;4319631;33;20650;-69
2021/06/11 06:32:32;;;;;;;6.65;5.40;;;22.60;99.90;;;;;;4334416;32;20460;-66
2021/06/11 06:34:58;;;;;;;6.10;5.25;;;23.30;99.90;;;;;;4345438;32;20273;-64
2021/06/11 06:37:25;;;;;;;7.80;4.60;;;24.40;99.90;;;;;;4339269;32;20089;-67
2021/06/11 06:39:52;;;;;;;6.68;5.90;;;25.10;99.90;;;;;;4330791;32;20152;-70
2021/06/11 06:42:18;;;;;;;7.78;6.37;;;23.50;99.90;;;;;;4340397;32;20069;-70
2021/06/11 06:44:45;;;;;;;8.60;5.80;;;23.50;99.90;;;;;;4340095;32;20077;-69
2021/06/11 06:47:11;;;;;;;8.18;7.37;;;23.60;99.90;;;;;;4327447;32;20472;-72
2021/06/11 06:49:37;;;;;;;8.93;6.25;;;23.50;99.90;;;;;;4336617;32;20074;-68
2021/06/11 06:52:04;;;;;;;8.20;6.15;;;23.40;99.90;;;;;;4353497;32;20071;-65
2021/06/11 06:54:32;;;;;;;9.13;6.22;;;23.50;99.90;;;;;;4366014;32;20161;-67
2021/06/11 06:56:59;;;;;;;9.45;6.10;;;23.60;99.90;;;;;;4346341;32;20133;-70
2021/06/11 06:59:26;;;;;;;7.12;5.72;;;23.60;99.90;;;;;;4336343;32;20151;-66
2021/06/11 07:01:57;;;;;;;5.80;5.07;;;23.80;99.90;;;;;;4322844;33;20583;-67
2021/06/11 07:04:28;;;;;;;6.12;5.47;;;23.60;99.90;;;;;;4337990;32;20453;-64
2021/06/11 07:06:54;;;;;;;6.37;4.65;;;23.60;99.90;;;;;;4321760;32;20158;-69
2021/06/11 07:09:20;;;;;;;6.47;4.95;;;24.40;99.90;;;;;;4311935;32;20098;-63
2021/06/11 07:11:51;;;;;;;7.32;5.32;;;23.90;99.90;;;;;;4339415;32;20074;-66
2021/06/11 07:14:23;;;;;;;6.78;5.80;;;23.90;99.90;;;;;;4338796;32;20071;-67
2021/06/11 07:16:49;;;;;;;7.55;5.22;;;23.80;99.90;;;;;;4331372;32;20662;-74
2021/06/11 07:19:15;;;;;;;6.28;5.28;;;24.20;99.90;;;;;;4339085;32;20058;-66
2021/06/11 07:21:41;;;;;;;5.78;5.00;;;24.40;99.90;;;;;;4333715;32;20075;-74
2021/06/11 07:24:08;;;;;;;6.10;5.22;;;25.20;99.90;;;;;;4325586;32;20137;-74
2021/06/11 07:26:36;;;;;;;8.57;5.20;;;24.00;99.90;;;;;;4334427;32;20082;-74
2021/06/11 07:29:03;;;;;;;8.68;5.62;;;24.20;99.90;;;;;;4346292;32;20109;-68
2021/06/11 07:31:29;;;;;;;5.57;4.57;;;23.70;99.90;;;;;;4337460;32;20074;-66
2021/06/11 07:33:55;;;;;;;6.85;4.95;;;25.00;99.90;;;;;;4335167;33;20086;-77
2021/06/11 07:36:21;;;;;;;7.90;5.68;;;24.90;99.90;;;;;;4323855;32;20070;-72
2021/06/11 07:38:47;;;;;;;6.62;5.62;;;24.10;99.90;;;;;;4344638;32;20094;-69
2021/06/11 07:41:14;;;;;;;6.28;5.10;;;24.80;99.90;;;;;;4332460;32;20137;-71
2021/06/11 07:43:40;;;;;;;5.93;4.70;;;24.20;99.90;;;;;;4333675;32;20113;-70
2021/06/11 07:46:06;;;;;;;8.18;5.82;;;24.30;99.90;;;;;;4344372;32;20082;-66
2021/06/11 07:48:32;;;;;;;6.40;4.65;;;24.20;99.90;;;;;;4346324;32;20142;-64
2021/06/11 07:50:59;;;;;;;5.10;4.43;;;24.80;99.90;;;;;;4322560;32;20117;-64
2021/06/11 07:53:25;;;;;;;5.60;4.80;;;24.60;99.90;;;;;;4334670;32;20485;-67
2021/06/11 07:55:52;;;;;;;5.60;4.40;;;24.70;99.90;;;;;;4348840;32;20122;-70
2021/06/11 07:58:18;;;;;;;6.65;4.18;;;24.90;99.90;;;;;;4331084;32;20070;-68
2021/06/11 08:00:44;;;;;;;5.45;4.68;;;25.00;99.90;;;;;;4349761;32;20074;-65
2021/06/11 08:03:11;;;;;;;7.65;4.45;;;24.70;99.90;;;;;;4330192;32;20093;-63
2021/06/11 08:05:39;;;;;;;6.43;4.10;;;25.00;99.90;;;;;;4343769;32;20109;-65
2021/06/11 08:08:06;;;;;;;6.78;4.65;;;25.10;99.90;;;;;;4328907;32;20098;-72
2021/06/11 08:10:33;;;;;;;5.05;4.53;;;24.80;99.90;;;;;;4353419;32;20187;-74
2021/06/11 08:12:59;;;;;;;7.60;4.18;;;24.60;99.90;;;;;;4335199;32;20070;-64
2021/06/11 08:15:26;;;;;;;4.62;3.75;;;24.20;99.90;;;;;;4357542;32;20576;-71
2021/06/11 08:17:52;;;;;;;4.95;3.60;;;24.60;99.90;;;;;;4327991;32;20076;-70
2021/06/11 08:20:18;;;;;;;7.50;4.18;;;26.00;99.90;;;;;;4330172;32;20062;-73
2021/06/11 08:22:45;;;;;;;4.75;4.12;;;25.20;99.90;;;;;;4345543;32;20515;-69
2021/06/11 08:25:11;;;;;;;5.82;4.15;;;24.90;99.90;;;;;;4350342;32;20121;-64
2021/06/11 08:27:38;;;;;;;4.80;3.80;;;24.50;99.90;;;;;;4318241;32;20142;-68
2021/06/11 08:30:06;;;;;;;4.05;3.30;;;24.50;99.90;;;;;;4338988;32;20066;-71
2021/06/11 08:32:32;;;;;;;9.40;4.10;;;25.20;99.90;;;;;;4319138;32;20441;-70
2021/06/11 08:34:59;;;;;;;5.35;3.87;;;25.40;99.90;;;;;;4339742;32;20094;-73
2021/06/11 08:37:25;;;;;;;4.53;3.80;;;25.40;99.90;;;;;;4334221;32;20081;-69
2021/06/11 08:39:56;;;;;;;6.28;3.87;;;25.50;99.90;;;;;;4337042;32;20101;-68
2021/06/11 08:42:32;;;;;;;4.87;3.55;;;25.00;99.90;;;;;;4350648;32;20082;-66
2021/06/11 08:45:07;;;;;;;5.03;3.95;;;24.90;99.90;;;;;;4343070;32;20108;-70
2021/06/11 08:47:34;;;;;;;5.70;4.35;;;25.80;99.90;;;;;;4334596;32;20465;-70
2021/06/11 08:50:00;;;;;;;5.93;4.32;;;25.20;99.90;;;;;;4328427;32;20070;-71
2021/06/11 08:52:28;;;;;;;8.30;4.03;;;25.30;99.90;;;;;;4343997;32;20114;-72
2021/06/11 08:54:57;;;;;;;4.85;4.18;;;25.30;99.90;;;;;;4334070;32;20518;-77
2021/06/11 08:57:24;;;;;;;6.78;4.10;;;25.10;99.90;;;;;;4336610;32;20094;-72
2021/06/11 08:59:52;;;;;;;5.20;3.92;;;25.20;99.90;;;;;;4343999;32;20106;-66
2021/06/11 09:02:23;;;;;;;6.95;4.20;;;25.20;99.90;;;;;;4342186;32;20087;-70
2021/06/11 09:04:53;;;;;;;5.12;4.15;;;25.30;99.90;;;;;;4339698;32;20109;-65
2021/06/11 09:07:33;;;;;;;7.15;4.35;;;25.20;99.90;;;;;;4338675;32;20054;-66
2021/06/11 09:12:00;;;;;;;6.03;4.03;;;25.20;99.90;;;;;;3845623;37;20043;-72
2021/06/11 09:14:26;;;;;;;6.10;3.87;;;25.00;99.90;;;;;;4377551;32;20123;-67
2021/06/11 09:16:53;;;;;;;7.70;4.05;;;25.10;99.90;;;;;;4365698;32;20184;-70
2021/06/11 09:19:20;;;;;;;5.68;3.62;;;25.00;99.90;;;;;;4393908;32;20497;-73
2021/06/11 09:22:02;;;;;;;5.10;3.65;;;25.30;99.90;;;;;;4393542;32;20165;-69
2021/06/11 09:24:31;;;;;;;5.90;4.40;;;24.90;99.90;;;;;;4387409;32;20547;-72
2021/06/11 09:26:57;;;;;;;7.37;3.90;;;25.10;99.90;;;;;;4373513;32;20161;-65
2021/06/11 09:29:43;;;;;;;4.78;4.05;;;24.90;99.90;;;;;;4385513;32;20085;-63
2021/06/11 09:32:15;;;;;;;6.28;4.03;;;24.80;99.90;;;;;;4392308;32;20077;-68
2021/06/11 09:34:44;;;;;;;6.00;3.75;;;24.70;99.90;;;;;;4373461;32;20060;-66
2021/06/11 09:37:13;;;;;;;5.32;4.30;;;24.60;99.90;;;;;;4391421;32;20439;-65
2021/06/11 09:39:44;;;;;;;8.60;5.03;;;24.50;99.90;;;;;;4372397;32;20516;-72
2021/06/11 09:42:11;;;;;;;6.45;4.30;;;21.60;99.90;;;;;;4373351;32;20120;-79
2021/06/11 09:44:37;;;;;;;8.57;3.55;;;17.10;99.90;;;;;;4380193;32;20141;-75
2021/06/11 09:47:04;;;;;;;6.57;3.78;;;17.20;99.90;;;;;;4376349;32;20080;-72
2021/06/11 09:50:28;;;;;;;6.43;3.60;;;18.30;99.90;;;;;;4380537;32;20058;-76
2021/06/11 09:52:57;;;;;;;8.63;4.72;;;18.60;99.90;;;;;;4375507;32;20081;-76
2021/06/11 09:55:35;;;;;;;7.28;4.93;;;18.40;99.90;;;;;;4372699;32;20559;-75
2021/06/11 09:58:13;;;;;;;8.48;5.10;;;19.20;99.90;;;;;;4348591;32;20082;-79
2021/06/11 10:00:46;;;;;;;5.87;4.35;;;19.30;99.90;;;;;;4366573;32;20074;-71
2021/06/11 10:03:37;;;;;;;7.70;4.28;;;20.00;99.90;;;;;;4367948;32;20134;-75
2021/06/11 10:06:06;;;;;;;4.28;3.67;;;20.40;99.90;;;;;;4367827;32;20081;-69
2021/06/11 10:08:33;;;;;;;6.00;4.00;;;20.50;99.90;;;;;;4361726;32;20070;-77
2021/06/11 10:11:07;;;;;;;5.80;4.43;;;20.40;99.90;;;;;;4349593;32;20089;-68
2021/06/11 10:13:34;;;;;;;5.10;4.18;;;20.40;99.90;;;;;;4373943;32;20066;-74
2021/06/11 10:16:06;;;;;;;7.28;4.55;;;20.70;99.90;;;;;;4376318;32;20136;-67
2021/06/11 10:18:32;;;;;;;5.75;4.40;;;20.80;99.90;;;;;;4383371;32;20065;-70
2021/06/11 10:21:01;;;;;;;6.60;4.40;;;20.80;99.90;;;;;;4372546;32;20097;-63
2021/06/11 10:23:28;;;;;;;8.55;5.20;;;20.70;99.90;;;;;;4359886;32;20501;-76
2021/06/11 10:25:56;;;;;;;9.48;5.60;;;21.00;99.90;;;;;;4353179;32;20096;-72
2021/06/11 10:28:47;;;;;;;7.30;6.18;;;21.40;99.90;;;;;;4360736;32;20090;-73
2021/06/11 10:31:35;;;;;;;7.07;5.40;;;21.70;99.90;;;;;;4361788;32;20183;-72
2021/06/11 10:34:03;;;;;;;9.50;6.68;;;22.00;99.90;;;;;;4373744;32;20147;-76
2021/06/11 10:36:30;;;;;;;9.98;6.85;;;22.20;99.90;;;;;;4357025;32;20102;-68
2021/06/11 10:38:58;;;;;;;11.07;6.25;;;22.60;99.90;;;;;;4371530;32;20232;-77
2021/06/11 10:41:25;;;;;;;8.00;5.30;;;23.30;99.90;;;;;;4361911;32;20204;-66
2021/06/11 10:43:52;;;;;;;7.57;5.93;;;23.60;99.90;;;;;;4346970;32;20070;-73
2021/06/11 10:46:24;;;;;;;7.62;5.57;;;23.20;99.90;;;;;;4345051;32;20095;-71
2021/06/11 10:48:56;;;;;;;9.15;5.80;;;23.30;99.90;;;;;;4358691;32;20101;-74
2021/06/11 10:51:47;;;;;;;9.18;5.50;;;22.90;99.90;;;;;;4371693;32;20070;-72
2021/06/11 10:54:20;;;;;;;8.50;5.25;;;23.50;99.90;;;;;;4383196;32;20058;-65
2021/06/11 10:56:59;;;;;;;8.35;4.72;;;23.60;99.90;;;;;;4366630;32;20070;-64
2021/06/11 10:59:32;;;;;;;7.12;4.45;;;23.60;99.90;;;;;;4381476;32;20495;-67
2021/06/11 11:01:59;;;;;;;8.30;5.18;;;23.50;99.90;;;;;;4348417;32;20159;-64
2021/06/11 11:04:37;;;;;;;7.28;5.43;;;24.00;99.90;;;;;;4349513;32;20082;-68
2021/06/11 11:07:30;;;;;;;6.35;4.87;;;24.00;99.90;;;;;;4351959;32;20059;-71
2021/06/11 11:10:34;;;;;;;7.97;4.43;;;24.70;99.90;;;;;;4368415;32;20188;-69
2021/06/11 11:13:09;;;;;;;6.62;3.80;;;24.60;99.90;;;;;;4347053;32;20057;-72
2021/06/11 11:15:38;;;;;;;4.93;4.03;;;24.40;99.90;;;;;;4358496;32;20438;-76
2021/06/11 11:18:12;;;;;;;5.60;3.70;;;24.60;99.90;;;;;;4359831;32;20077;-65
2021/06/11 11:20:40;;;;;;;5.10;3.97;;;24.40;99.90;;;;;;4337365;32;20086;-74
2021/06/11 11:23:18;;;;;;;7.97;4.00;;;25.10;99.90;;;;;;4348788;32;20058;-66
2021/06/11 11:25:44;;;;;;;7.30;3.62;;;25.00;99.90;;;;;;4339203;32;20073;-71
2021/06/11 11:28:12;;;;;;;4.10;3.70;;;25.10;99.90;;;;;;4378271;32;20086;-71
2021/06/11 11:30:41;;;;;;;5.40;4.00;;;25.00;99.90;;;;;;4346550;32;20185;-71
2021/06/11 11:33:08;;;;;;;5.30;3.78;;;25.10;99.90;;;;;;4329677;32;20085;-65
2021/06/11 11:35:39;;;;;;;5.57;3.92;;;25.40;99.90;;;;;;4351301;32;20129;-70
2021/06/11 11:38:08;;;;;;;5.60;3.83;;;26.00;99.90;;;;;;4346185;32;20078;-67
2021/06/11 11:40:34;;;;;;;4.30;3.80;;;25.60;99.90;;;;;;4350449;32;20077;-65
2021/06/11 11:43:01;;;;;;;6.03;3.95;;;25.30;99.90;;;;;;4344863;32;20588;-68
2021/06/11 11:45:29;;;;;;;5.07;3.95;;;25.10;99.90;;;;;;4354983;32;20154;-71
2021/06/11 11:48:00;;;;;;;8.45;4.20;;;25.10;99.90;;;;;;4346999;32;20098;-72
2021/06/11 11:50:28;;;;;;;3.67;3.05;;;25.30;99.90;;;;;;4362740;32;20089;-74
2021/06/11 11:52:55;;;;;;;3.70;2.92;;;25.30;99.90;;;;;;4362597;32;20150;-72
2021/06/11 11:55:21;;;;;;;5.78;3.12;;;25.80;99.90;;;;;;4361902;32;20434;-73
2021/06/11 11:57:48;;;;;;;5.28;3.17;;;25.30;99.90;;;;;;4336463;32;20558;-74
2021/06/11 12:00:15;;;;;;;5.70;3.90;;;25.40;99.90;;;;;;4361441;32;20587;-65
2021/06/11 12:02:44;;;;;;;5.40;2.90;;;25.20;99.90;;;;;;4353476;32;20460;-76
2021/06/11 12:05:11;;;;;;;3.72;2.60;;;25.50;99.90;;;;;;4360403;32;20066;-75
2021/06/11 12:07:38;;;;;;;3.17;2.80;;;25.40;98.70;;;;;;4334082;32;20086;-74
2021/06/11 12:10:05;;;;;;;3.60;3.00;;;25.40;99.90;;;;;;4338848;32;20074;-74
2021/06/11 12:12:31;;;;;;;5.50;3.47;;;25.30;99.90;;;;;;4356190;32;20073;-74
2021/06/11 12:14:57;;;;;;;5.15;3.72;;;25.40;99.90;;;;;;4346441;32;20545;-74
2021/06/11 12:17:24;;;;;;;7.03;4.85;;;25.50;99.90;;;;;;4355481;32;20088;-74
2021/06/11 12:19:50;;;;;;;9.27;5.00;;;25.20;99.90;;;;;;4350513;32;22017;-74
2021/06/11 12:22:17;;;;;;;4.93;3.95;;;25.30;99.90;;;;;;4346714;32;20069;-76
2021/06/11 12:24:43;;;;;;;5.28;4.10;;;24.90;99.90;;;;;;4341699;32;20070;-74
2021/06/11 12:27:10;;;;;;;7.65;4.10;;;24.40;99.90;;;;;;4348308;32;20086;-74
2021/06/11 12:29:36;;;;;;;6.50;3.67;;;24.10;99.90;;;;;;4349441;32;20089;-74
2021/06/11 12:32:02;;;;;;;6.43;3.95;;;24.40;99.90;;;;;;4363748;32;20072;-77
2021/06/11 12:34:29;;;;;;;6.53;3.87;;;24.40;99.90;;;;;;4341013;32;20169;-77
2021/06/11 12:36:55;;;;;;;5.80;3.53;;;24.80;99.90;;;;;;4338874;32;20067;-79
2021/06/11 12:39:22;;;;;;;3.95;3.42;;;24.70;99.90;;;;;;4369604;32;20442;-78
2021/06/11 12:41:54;;;;;;;6.40;3.42;;;24.30;99.90;;;;;;4351023;32;21078;-73
2021/06/11 12:44:20;;;;;;;4.82;2.92;;;24.70;99.90;;;;;;4372490;32;20066;-73
2021/06/11 12:46:50;;;;;;;4.03;3.20;;;24.70;99.90;;;;;;4365576;32;20493;-74
2021/06/11 12:49:16;;;;;;;5.28;3.00;;;24.20;99.90;;;;;;4370667;32;20061;-72
2021/06/11 12:51:43;;;;;;;7.72;2.80;;;23.80;99.90;;;;;;4365453;32;20288;-73
2021/06/11 12:54:09;;;;;;;4.22;2.50;;;23.90;98.60;;;;;;4336355;32;20145;-71
2021/06/11 12:56:37;;;;;;;4.03;2.58;;;24.00;96.30;;;;;;4347247;32;20174;-72
2021/06/11 12:59:04;;;;;;;6.35;2.50;;;24.30;95.00;;;;;;4330932;32;20066;-72